Time;durP1;ratioP1;P1;durP2;ratioP2;P2;SDS_P1;SDS_P2;PMS_P1;PMS_P2;Temp;Humidity;BMP_temperature;BMP_pressure;BME280_temperature;BME280_humidity;BME280_pressure;Samples;Min_cycle;Max_cycle;Signal;HPM_P1;HPM_P2
2023/12/24 00:00:19;;;;;;;12.48;4.57;;;;;;;6.12;75.07;93190.22;5082727;28;20020;-79
2023/12/24 00:02:45;;;;;;;13.93;5.63;;;;;;;6.17;75.03;93192.78;5082780;28;20035;-78
2023/12/24 00:05:10;;;;;;;11.70;6.28;;;;;;;6.14;75.12;93193.34;5082940;28;20023;-77
2023/12/24 00:07:35;;;;;;;13.02;5.20;;;;;;;6.06;74.74;93201.25;5083121;28;20074;-78
2023/12/24 00:10:01;;;;;;;7.60;3.75;;;;;;;6.07;74.50;93203.59;5082713;28;20051;-77
2023/12/24 00:12:26;;;;;;;7.70;2.90;;;;;;;5.96;74.98;93199.59;5081546;28;20087;-77
2023/12/24 00:14:54;;;;;;;13.13;3.78;;;;;;;5.99;74.88;93185.78;5082797;28;20221;-77
2023/12/24 00:17:19;;;;;;;9.65;2.70;;;;;;;6.22;73.68;93200.56;5082980;28;20031;-79
2023/12/24 00:19:45;;;;;;;6.50;2.83;;;;;;;6.46;73.06;93194.19;5082988;28;20056;-80
2023/12/24 00:22:11;;;;;;;6.05;1.75;;;;;;;6.80;71.73;93200.75;5082754;28;20219;-79
2023/12/24 00:24:37;;;;;;;3.17;1.48;;;;;;;7.28;69.70;93191.25;5082478;28;20373;-79
2023/12/24 00:27:02;;;;;;;9.35;1.95;;;;;;;7.64;67.93;93188.38;5082678;28;20047;-80
2023/12/24 00:29:28;;;;;;;7.28;2.05;;;;;;;7.99;65.39;93193.69;5082963;28;20150;-79
2023/12/24 00:31:53;;;;;;;7.25;1.60;;;;;;;8.24;64.30;93218.66;5082895;28;20032;-77
2023/12/24 00:34:18;;;;;;;4.55;1.83;;;;;;;8.44;62.54;93219.91;5082665;28;20020;-78
2023/12/24 00:36:44;;;;;;;5.63;1.35;;;;;;;8.58;61.51;93206.47;5082482;28;20322;-78
2023/12/24 00:39:10;;;;;;;2.03;1.13;;;;;;;8.72;59.20;93216.91;5082425;28;20040;-78
2023/12/24 00:41:38;;;;;;;3.72;1.17;;;;;;;8.83;57.21;93237.50;5082485;28;20023;-78
2023/12/24 00:44:03;;;;;;;8.25;1.58;;;;;;;8.87;56.18;93227.00;5082356;28;20020;-77
2023/12/24 00:46:29;;;;;;;2.78;1.30;;;;;;;8.96;55.86;93227.78;5082588;28;20184;-77
2023/12/24 00:48:54;;;;;;;15.85;1.45;;;;;;;8.98;56.66;93228.22;5082626;28;20382;-78
2023/12/24 00:51:19;;;;;;;3.03;1.33;;;;;;;8.97;57.18;93234.63;5082421;28;20020;-79
2023/12/24 00:53:45;;;;;;;4.43;1.95;;;;;;;8.90;56.24;93255.63;5082508;28;20019;-79
2023/12/24 00:56:10;;;;;;;4.00;1.48;;;;;;;8.90;55.72;93258.28;5082386;28;20092;-78
2023/12/24 00:58:36;;;;;;;1.63;0.98;;;;;;;8.90;55.48;93279.53;5082490;28;20024;-78
2023/12/24 01:01:02;;;;;;;10.88;2.45;;;;;;;8.82;55.66;93277.69;5082552;28;20044;-78
2023/12/24 01:03:28;;;;;;;5.60;1.45;;;;;;;8.79;55.69;93300.34;5086112;28;20044;-78
2023/12/24 01:05:53;;;;;;;5.47;1.50;;;;;;;8.78;56.03;93298.00;5086309;28;20031;-78
2023/12/24 01:08:19;;;;;;;7.35;1.67;;;;;;;8.76;56.05;93311.59;5086034;28;20020;-78
2023/12/24 01:10:44;;;;;;;2.97;1.25;;;;;;;8.74;56.10;93291.75;5085825;28;20036;-78
2023/12/24 01:13:09;;;;;;;4.35;1.38;;;;;;;8.72;56.37;93304.56;5085817;28;20043;-78
2023/12/24 01:15:35;;;;;;;2.08;0.80;;;;;;;8.68;56.25;93298.34;5085905;28;20021;-79
2023/12/24 01:18:00;;;;;;;4.90;1.25;;;;;;;8.60;56.27;93298.00;5086360;28;20013;-77
2023/12/24 01:20:25;;;;;;;3.45;1.17;;;;;;;8.61;56.52;93307.56;5086246;28;20020;-78
2023/12/24 01:22:51;;;;;;;3.38;1.30;;;;;;;8.56;56.56;93307.69;5086074;28;20047;-77
2023/12/24 01:25:16;;;;;;;3.30;1.10;;;;;;;8.55;55.03;93337.25;5086170;28;20036;-78
2023/12/24 01:27:42;;;;;;;4.60;1.13;;;;;;;8.49;54.69;93359.72;5085890;28;20310;-78
2023/12/24 01:30:08;;;;;;;3.60;1.23;;;;;;;8.39;55.17;93335.03;5085754;28;20024;-78
2023/12/24 01:32:33;;;;;;;3.92;0.93;;;;;;;8.39;55.88;93328.94;5085871;28;20062;-78
2023/12/24 01:34:59;;;;;;;3.35;1.30;;;;;;;8.45;56.38;93319.75;5085738;28;20275;-78
2023/12/24 01:37:24;;;;;;;3.70;1.13;;;;;;;8.36;55.39;93329.53;5085853;28;20016;-78
2023/12/24 01:39:49;;;;;;;5.47;1.23;;;;;;;8.36;56.33;93334.84;5085596;28;20024;-78
2023/12/24 01:42:15;;;;;;;4.40;1.42;;;;;;;8.36;56.80;93318.91;5085631;28;20023;-79
2023/12/24 01:44:40;;;;;;;2.92;1.30;;;;;;;8.34;57.29;93318.44;5085329;28;20043;-77
2023/12/24 01:47:07;;;;;;;9.20;1.60;;;;;;;8.39;57.63;93318.31;5085420;28;20370;-79
2023/12/24 01:49:33;;;;;;;3.88;1.73;;;;;;;8.39;57.90;93319.09;5085297;28;20043;-79
2023/12/24 01:51:59;;;;;;;2.67;1.15;;;;;;;8.39;58.21;93310.34;5085266;28;20094;-78
2023/12/24 01:54:25;;;;;;;6.43;1.25;;;;;;;8.35;58.28;93320.03;5085223;28;20036;-78
2023/12/24 01:56:51;;;;;;;5.00;1.60;;;;;;;8.26;57.77;93335.16;5085478;28;20058;-79
2023/12/24 01:59:17;;;;;;;3.63;1.23;;;;;;;8.19;57.40;93344.38;5085370;28;20044;-78
2023/12/24 02:01:42;;;;;;;4.82;1.52;;;;;;;8.13;57.12;93355.44;5085328;28;20052;-79
2023/12/24 02:04:08;;;;;;;4.07;1.25;;;;;;;8.09;57.10;93373.84;5085386;28;20091;-80
2023/12/24 02:06:34;;;;;;;2.88;1.00;;;;;;;8.02;56.81;93366.34;5085274;28;20047;-80
2023/12/24 02:09:00;;;;;;;2.92;0.93;;;;;;;8.07;56.30;93341.53;5084903;28;20032;-79
2023/12/24 02:11:26;;;;;;;6.07;1.00;;;;;;;8.01;56.49;93353.38;5084786;28;20050;-80
2023/12/24 02:13:52;;;;;;;1.80;1.10;;;;;;;8.04;56.77;93358.88;5085253;28;20052;-79
2023/12/24 02:16:20;;;;;;;4.93;1.73;;;;;;;7.98;57.05;93365.41;5085073;28;20031;-79
2023/12/24 02:18:45;;;;;;;3.15;1.30;;;;;;;7.97;57.23;93366.47;5085063;28;20031;-79
2023/12/24 02:21:11;;;;;;;5.15;0.85;;;;;;;7.94;57.07;93366.34;5084938;28;20107;-79
2023/12/24 02:23:36;;;;;;;2.92;1.10;;;;;;;7.92;56.64;93363.22;5084998;28;20024;-79
2023/12/24 02:26:24;;;;;;;4.47;1.17;;;;;;;7.89;56.09;93377.84;5083671;28;20028;-79
2023/12/24 02:28:56;;;;;;;3.20;0.82;;;;;;;7.84;56.30;93376.13;5073984;28;20032;-79
2023/12/24 02:31:26;;;;;;;1.58;0.80;;;;;;;7.80;55.78;93374.41;5084942;28;20020;-80
2023/12/24 02:33:53;;;;;;;4.47;0.90;;;;;;;7.79;55.69;93365.63;5084921;28;20151;-78
2023/12/24 02:36:20;;;;;;;5.40;1.00;;;;;;;7.88;55.44;93365.69;5084416;28;20056;-79
2023/12/24 02:38:45;;;;;;;2.40;1.13;;;;;;;7.82;55.37;93367.69;5084412;28;20024;-79
2023/12/24 02:41:11;;;;;;;1.95;1.08;;;;;;;7.80;55.32;93372.53;5084639;28;20020;-78
2023/12/24 02:43:36;;;;;;;3.25;1.10;;;;;;;7.79;55.44;93386.88;5084493;28;20150;-79
2023/12/24 02:46:04;;;;;;;2.50;0.93;;;;;;;7.78;55.11;93382.66;5085512;28;20087;-79
2023/12/24 02:48:30;;;;;;;5.05;1.20;;;;;;;7.79;55.78;93386.88;5085384;28;20249;-78
2023/12/24 02:50:55;;;;;;;2.95;1.10;;;;;;;7.71;55.37;93390.25;5084322;28;20016;-79
2023/12/24 02:53:20;;;;;;;2.33;0.80;;;;;;;7.74;55.28;93399.50;5084396;28;20013;-77
2023/12/24 02:55:46;;;;;;;1.27;0.85;;;;;;;7.66;55.34;93382.47;5084447;28;20032;-79
2023/12/24 02:58:12;;;;;;;5.82;1.20;;;;;;;7.72;55.29;93394.50;5084350;28;20023;-78
2023/12/24 03:00:37;;;;;;;1.90;0.90;;;;;;;7.70;55.72;93395.91;5083889;28;20032;-79
2023/12/24 03:03:03;;;;;;;3.35;1.48;;;;;;;7.67;55.02;93397.28;5084073;28;20021;-79
2023/12/24 03:05:28;;;;;;;2.85;0.93;;;;;;;7.75;55.42;93403.72;5084145;28;20314;-78
2023/12/24 03:07:54;;;;;;;3.15;1.15;;;;;;;7.62;55.12;93390.22;5084232;28;20091;-80
2023/12/24 03:10:19;;;;;;;3.10;0.75;;;;;;;7.59;55.31;93403.31;5083762;28;20046;-79
2023/12/24 03:12:44;;;;;;;2.28;1.10;;;;;;;7.57;55.43;93405.50;5082581;28;20024;-79
2023/12/24 03:15:11;;;;;;;2.08;1.05;;;;;;;7.63;55.32;93413.03;5083767;28;20039;-78
2023/12/24 03:17:37;;;;;;;3.20;1.20;;;;;;;7.63;55.49;93410.38;5084049;28;20094;-78
2023/12/24 03:20:03;;;;;;;3.78;1.20;;;;;;;7.63;55.26;93415.69;5083770;28;20323;-78
2023/12/24 03:22:28;;;;;;;2.30;1.00;;;;;;;7.60;55.68;93421.59;5083397;28;20087;-78
2023/12/24 03:24:53;;;;;;;2.15;0.82;;;;;;;7.58;55.87;93421.09;5082207;28;20031;-79
2023/12/24 03:27:19;;;;;;;5.43;0.88;;;;;;;7.61;56.08;93419.72;5083639;28;20025;-79
2023/12/24 03:29:44;;;;;;;2.75;1.13;;;;;;;7.62;56.32;93435.31;5082146;28;20032;-79
2023/12/24 03:32:10;;;;;;;2.30;0.93;;;;;;;7.65;55.98;93428.63;5083500;28;20060;-79
2023/12/24 03:34:35;;;;;;;5.68;1.02;;;;;;;7.71;56.30;93432.72;5083136;28;20040;-79
2023/12/24 03:37:01;;;;;;;2.50;1.00;;;;;;;7.75;56.33;93449.59;5083513;28;20087;-79
2023/12/24 03:39:26;;;;;;;2.67;0.90;;;;;;;7.74;56.57;93447.25;5083379;28;20163;-78
2023/12/24 03:41:52;;;;;;;5.90;1.50;;;;;;;7.74;56.81;93449.91;5083397;28;20028;-78
2023/12/24 03:44:17;;;;;;;6.68;1.38;;;;;;;7.74;57.17;93461.28;5083308;28;20016;-78
2023/12/24 03:46:42;;;;;;;3.78;1.77;;;;;;;7.72;57.22;93460.81;5082225;28;20093;-78
2023/12/24 03:49:11;;;;;;;2.70;1.35;;;;;;;7.78;57.09;93458.81;5082990;28;20088;-78
2023/12/24 03:51:36;;;;;;;2.40;1.20;;;;;;;7.76;57.08;93464.44;5082886;28;20023;-78
2023/12/24 03:54:02;;;;;;;2.65;1.25;;;;;;;7.78;56.97;93474.75;5083222;28;20319;-79
2023/12/24 03:56:27;;;;;;;3.83;1.38;;;;;;;7.79;57.29;93471.75;5083210;28;20032;-78
2023/12/24 03:58:53;;;;;;;4.78;1.38;;;;;;;7.80;57.14;93478.66;5083245;28;20032;-78
2023/12/24 04:01:24;;;;;;;4.15;1.20;;;;;;;7.82;56.89;93476.47;5082757;28;20048;-78
2023/12/24 04:03:50;;;;;;;5.10;1.48;;;;;;;7.83;57.16;93474.59;5083002;28;20035;-78
2023/12/24 04:06:16;;;;;;;4.25;1.23;;;;;;;7.76;56.91;93508.75;5082901;28;20020;-79
2023/12/24 04:08:41;;;;;;;6.80;1.58;;;;;;;7.72;57.05;93499.84;5083179;28;20040;-78
2023/12/24 04:11:14;;;;;;;3.50;1.52;;;;;;;7.73;56.81;93502.16;5082704;28;20035;-79
2023/12/24 04:13:40;;;;;;;5.82;1.00;;;;;;;7.63;57.22;93499.75;5082933;28;20051;-78
2023/12/24 04:16:06;;;;;;;4.05;1.35;;;;;;;7.71;56.99;93511.50;5083108;28;20032;-78
2023/12/24 04:18:31;;;;;;;6.10;1.45;;;;;;;7.71;57.25;93514.94;5082907;28;20150;-79
2023/12/24 04:20:56;;;;;;;2.80;1.52;;;;;;;7.65;57.21;93513.50;5082541;28;20028;-77
2023/12/24 04:23:22;;;;;;;3.30;1.15;;;;;;;7.63;57.66;93518.31;5082808;28;20035;-79
2023/12/24 04:25:47;;;;;;;5.03;1.25;;;;;;;7.59;57.87;93522.66;5081759;28;20024;-79
2023/12/24 04:28:13;;;;;;;5.50;1.42;;;;;;;7.55;58.37;93516.41;5083065;28;20023;-79
2023/12/24 04:30:38;;;;;;;3.38;1.13;;;;;;;7.56;58.33;93515.34;5082586;28;20107;-79
2023/12/24 04:33:04;;;;;;;4.88;1.60;;;;;;;7.46;58.73;93515.56;5082705;28;20044;-79
2023/12/24 04:35:29;;;;;;;3.15;1.35;;;;;;;7.41;58.79;93550.94;5085177;28;20273;-78
2023/12/24 04:37:55;;;;;;;4.88;1.35;;;;;;;7.40;59.44;93526.28;5086996;28;20087;-79
2023/12/24 04:40:21;;;;;;;1.95;1.13;;;;;;;7.40;59.48;93533.47;5086646;28;20036;-78
2023/12/24 04:42:47;;;;;;;2.35;1.17;;;;;;;7.36;59.46;93517.38;5086704;28;20048;-78
2023/12/24 04:45:13;;;;;;;3.10;1.50;;;;;;;7.44;59.29;93529.13;5086745;28;20020;-78
2023/12/24 04:47:38;;;;;;;4.78;1.17;;;;;;;7.51;58.99;93521.53;5086742;28;20048;-78
2023/12/24 04:50:04;;;;;;;3.15;1.55;;;;;;;7.51;59.19;93524.19;5086758;28;20027;-78
2023/12/24 04:52:35;;;;;;;6.20;1.08;;;;;;;7.55;58.52;93530.47;5086579;28;20049;-78
2023/12/24 04:55:04;;;;;;;2.00;1.10;;;;;;;7.52;58.32;93523.09;5086320;28;20275;-78
2023/12/24 04:57:30;;;;;;;1.83;0.73;;;;;;;7.53;58.16;93529.97;5086349;28;20218;-78
2023/12/24 04:59:55;;;;;;;2.67;0.82;;;;;;;7.64;57.32;93526.00;5086755;28;20255;-78
2023/12/24 05:02:21;;;;;;;1.55;0.77;;;;;;;7.62;57.15;93532.69;5085907;28;20064;-78
2023/12/24 05:04:46;;;;;;;2.78;0.95;;;;;;;7.60;57.45;93542.81;5086216;28;20048;-78
2023/12/24 05:07:11;;;;;;;3.58;1.20;;;;;;;7.67;57.43;93560.97;5086335;28;20049;-78
2023/12/24 05:09:39;;;;;;;1.13;0.60;;;;;;;7.68;57.33;93544.75;5086017;28;20020;-78
2023/12/24 05:12:05;;;;;;;1.48;0.95;;;;;;;7.67;57.14;93561.72;5086007;28;20044;-78
2023/12/24 05:14:33;;;;;;;4.90;1.30;;;;;;;7.72;57.03;93566.94;5086178;28;20033;-78
2023/12/24 05:16:58;;;;;;;3.72;0.85;;;;;;;7.71;57.22;93568.00;5085816;28;20044;-78
2023/12/24 05:19:24;;;;;;;2.40;0.90;;;;;;;7.78;57.07;93567.59;5086271;28;20032;-78
2023/12/24 05:21:49;;;;;;;1.08;0.80;;;;;;;7.69;57.39;93585.31;5085742;28;20028;-78
2023/12/24 05:24:15;;;;;;;1.23;0.70;;;;;;;7.66;57.48;93592.00;5085864;28;20222;-78
2023/12/24 05:26:40;;;;;;;0.80;0.50;;;;;;;7.69;57.34;93593.28;5085921;28;20052;-79
2023/12/24 05:29:05;;;;;;;1.27;0.80;;;;;;;7.66;57.47;93589.34;5085771;28;20179;-78
2023/12/24 05:31:31;;;;;;;1.63;0.50;;;;;;;7.69;57.87;93594.03;5085848;28;20024;-79
2023/12/24 05:33:56;;;;;;;2.33;0.88;;;;;;;7.69;57.24;93583.44;5085644;28;20024;-79
2023/12/24 05:36:21;;;;;;;1.73;0.80;;;;;;;7.65;57.69;93563.91;5085861;28;20066;-78
2023/12/24 05:38:47;;;;;;;0.95;0.50;;;;;;;7.62;57.48;93572.47;5085467;28;20024;-78
2023/12/24 05:41:15;;;;;;;2.05;0.70;;;;;;;7.62;58.12;93561.88;5085803;28;20021;-78
2023/12/24 05:43:40;;;;;;;2.00;0.63;;;;;;;7.63;58.20;93574.03;5085640;28;20057;-79
2023/12/24 05:46:14;;;;;;;2.47;0.73;;;;;;;7.58;58.45;93579.47;5083868;28;20021;-77
2023/12/24 05:48:40;;;;;;;2.50;0.60;;;;;;;7.54;58.34;93586.47;5085623;28;20070;-78
2023/12/24 05:51:05;;;;;;;2.13;0.80;;;;;;;7.48;58.34;93592.97;5085420;28;20017;-79
2023/12/24 05:53:31;;;;;;;1.70;0.65;;;;;;;7.50;58.78;93575.66;5085475;28;20020;-78
2023/12/24 05:55:56;;;;;;;1.45;0.65;;;;;;;7.46;58.59;93560.66;5085326;28;20050;-78
2023/12/24 05:58:21;;;;;;;2.63;0.55;;;;;;;7.46;58.68;93569.38;5085492;28;20066;-79
2023/12/24 06:00:47;;;;;;;0.73;0.57;;;;;;;7.52;58.58;93560.22;5085174;28;20051;-78
2023/12/24 06:03:13;;;;;;;4.60;0.80;;;;;;;7.46;58.86;93563.31;5085238;28;20373;-78
2023/12/24 06:05:38;;;;;;;2.13;1.13;;;;;;;7.39;59.16;93567.16;5085601;28;20414;-78
2023/12/24 06:08:04;;;;;;;1.00;0.50;;;;;;;7.41;57.73;93566.88;5085384;28;20251;-77
2023/12/24 06:10:30;;;;;;;1.45;0.50;;;;;;;7.49;57.29;93562.69;5085839;28;20029;-77
2023/12/24 06:12:55;;;;;;;0.82;0.47;;;;;;;7.59;56.52;93568.56;5085784;28;20130;-78
2023/12/24 06:15:20;;;;;;;0.82;0.32;;;;;;;7.64;56.26;93541.13;5085114;28;20100;-77
2023/12/24 06:17:46;;;;;;;0.32;0.30;;;;;;;7.66;56.19;93562.06;5085194;28;20039;-77
2023/12/24 06:20:11;;;;;;;0.28;0.20;;;;;;;7.72;56.59;93574.88;5084001;28;20039;-77
2023/12/24 06:22:37;;;;;;;3.40;0.40;;;;;;;7.70;55.94;93563.03;5085014;28;20036;-77
2023/12/24 06:25:02;;;;;;;3.88;0.40;;;;;;;7.78;56.25;93578.22;5083701;28;20100;-77
2023/12/24 06:27:28;;;;;;;0.52;0.35;;;;;;;7.79;55.49;93575.22;5084767;28;20170;-77
2023/12/24 06:29:53;;;;;;;0.30;0.20;;;;;;;7.79;55.49;93585.84;5085004;28;20040;-77
2023/12/24 06:32:19;;;;;;;1.75;0.50;;;;;;;7.80;55.42;93581.34;5084408;28;20012;-77
2023/12/24 06:34:44;;;;;;;0.93;0.50;;;;;;;7.80;55.83;93598.03;5084861;28;20039;-78
2023/12/24 06:37:10;;;;;;;0.20;0.20;;;;;;;7.84;55.42;93585.75;5084825;28;20096;-78
2023/12/24 06:39:35;;;;;;;0.45;0.30;;;;;;;7.84;55.17;93585.75;5084519;28;20031;-77
2023/12/24 06:42:01;;;;;;;1.05;0.60;;;;;;;7.87;55.58;93579.03;5084265;28;20024;-78
2023/12/24 06:44:27;;;;;;;1.10;0.50;;;;;;;7.93;55.51;93588.44;5084485;28;20055;-78
2023/12/24 06:46:52;;;;;;;2.05;0.40;;;;;;;7.95;55.30;93598.75;5084815;28;20111;-79
2023/12/24 06:49:19;;;;;;;0.35;0.35;;;;;;;7.97;55.45;93610.63;5084415;28;20020;-78
2023/12/24 06:51:44;;;;;;;0.77;0.40;;;;;;;7.95;55.07;93620.78;5084516;28;20365;-79
2023/12/24 06:54:10;;;;;;;2.38;0.55;;;;;;;7.99;54.94;93628.91;5084590;28;20025;-78
2023/12/24 06:56:35;;;;;;;0.93;0.50;;;;;;;7.98;55.42;93644.06;5084217;28;20322;-78
2023/12/24 06:59:01;;;;;;;1.42;0.60;;;;;;;8.05;54.87;93635.69;5083995;28;20058;-78
2023/12/24 07:01:26;;;;;;;1.10;0.50;;;;;;;8.12;55.08;93657.28;5083871;28;20334;-79
2023/12/24 07:03:52;;;;;;;0.70;0.40;;;;;;;8.14;54.92;93651.66;5084383;28;20100;-78
2023/12/24 07:06:17;;;;;;;0.77;0.45;;;;;;;8.17;54.40;93648.41;5084177;28;20024;-78
2023/12/24 07:08:43;;;;;;;0.80;0.40;;;;;;;8.24;54.08;93664.69;5083001;28;20024;-78
2023/12/24 07:11:08;;;;;;;2.50;0.40;;;;;;;8.29;53.52;93664.56;5084024;28;20138;-78
2023/12/24 07:13:34;;;;;;;0.95;0.50;;;;;;;8.31;53.66;93656.31;5084236;28;20021;-78
2023/12/24 07:15:59;;;;;;;2.15;0.57;;;;;;;8.37;54.16;93658.53;5084244;28;20056;-79
2023/12/24 07:18:25;;;;;;;0.25;0.20;;;;;;;8.40;52.88;93665.09;5084235;28;20031;-78
2023/12/24 07:20:51;;;;;;;3.00;0.30;;;;;;;8.44;53.18;93671.41;5083712;28;20027;-79
2023/12/24 07:23:16;;;;;;;0.60;0.40;;;;;;;8.41;52.68;93659.53;5083499;28;20024;-75
2023/12/24 07:25:41;;;;;;;0.85;0.30;;;;;;;8.53;52.93;93656.31;5083480;28;20032;-78
2023/12/24 07:28:07;;;;;;;0.25;0.20;;;;;;;8.56;52.27;93650.38;5083527;28;20099;-78
2023/12/24 07:30:32;;;;;;;0.98;0.50;;;;;;;8.63;52.60;93669.34;5081810;28;20210;-78
2023/12/24 07:32:57;;;;;;;3.22;0.65;;;;;;;8.67;51.54;93689.97;5081683;28;20012;-78
2023/12/24 07:35:23;;;;;;;1.13;0.50;;;;;;;8.67;51.89;93671.38;5083083;28;20044;-78
2023/12/24 07:37:48;;;;;;;1.05;0.57;;;;;;;8.78;51.43;93676.13;5082756;28;20256;-78
2023/12/24 07:40:14;;;;;;;1.15;0.50;;;;;;;8.77;51.86;93685.19;5082759;28;20017;-78
2023/12/24 07:42:39;;;;;;;2.38;0.80;;;;;;;8.80;51.31;93692.53;5082839;28;20036;-78
2023/12/24 07:45:05;;;;;;;2.13;0.40;;;;;;;8.72;51.38;93687.19;5082817;28;20029;-77
2023/12/24 07:47:31;;;;;;;3.75;0.30;;;;;;;8.77;51.56;93687.03;5082654;28;20338;-78
2023/12/24 07:49:57;;;;;;;0.55;0.30;;;;;;;8.73;50.98;93664.84;5082823;28;20238;-78
2023/12/24 07:52:22;;;;;;;0.20;0.20;;;;;;;8.72;51.84;93676.56;5082969;28;20048;-78
2023/12/24 07:54:47;;;;;;;0.65;0.35;;;;;;;8.70;51.21;93670.78;5082659;28;20024;-78
2023/12/24 07:57:13;;;;;;;0.50;0.30;;;;;;;8.78;52.04;93654.09;5082598;28;20035;-78
2023/12/24 07:59:39;;;;;;;0.90;0.30;;;;;;;8.81;50.80;93664.88;5082606;28;20354;-78
2023/12/24 08:02:04;;;;;;;1.25;0.45;;;;;;;8.87;51.56;93678.81;5081155;28;20039;-79
2023/12/24 08:04:31;;;;;;;1.02;0.40;;;;;;;8.80;50.79;93686.44;5082559;28;20024;-78
2023/12/24 08:06:56;;;;;;;0.40;0.30;;;;;;;8.86;50.24;93687.88;5082594;28;20043;-78
2023/12/24 08:09:22;;;;;;;0.30;0.20;;;;;;;8.85;50.63;93694.28;5082386;28;20050;-79
2023/12/24 08:11:47;;;;;;;5.85;0.40;;;;;;;8.92;50.55;93686.66;5082342;28;20016;-78
2023/12/24 08:14:13;;;;;;;0.68;0.40;;;;;;;9.07;49.79;93680.16;5082515;28;20187;-79
2023/12/24 08:16:38;;;;;;;5.93;0.50;;;;;;;9.13;50.15;93659.53;5082544;28;20028;-79
2023/12/24 08:19:03;;;;;;;1.98;0.70;;;;;;;9.28;49.40;93650.31;5082569;28;20027;-78
2023/12/24 08:21:29;;;;;;;0.73;0.50;;;;;;;9.40;48.95;93648.66;5082348;28;20092;-79
2023/12/24 08:23:54;;;;;;;1.50;0.43;;;;;;;9.52;48.40;93644.59;5082590;28;20020;-79
2023/12/24 08:26:20;;;;;;;1.33;0.60;;;;;;;9.63;48.18;93636.00;5082416;28;20043;-79
2023/12/24 08:28:45;;;;;;;0.93;0.40;;;;;;;9.73;47.35;93642.09;5082334;28;20020;-77
2023/12/24 08:31:11;;;;;;;0.93;0.35;;;;;;;9.76;46.53;93628.94;5082361;28;20020;-79
2023/12/24 08:33:37;;;;;;;0.73;0.40;;;;;;;9.83;46.86;93626.63;5082340;28;20313;-78
2023/12/24 08:36:03;;;;;;;0.73;0.30;;;;;;;9.92;46.18;93623.16;5082055;28;20196;-77
2023/12/24 08:38:29;;;;;;;1.75;0.60;;;;;;;10.05;46.28;93651.50;5082251;28;20024;-78
2023/12/24 08:40:54;;;;;;;0.60;0.40;;;;;;;10.11;45.23;93644.13;5081482;28;20020;-78
2023/12/24 08:43:20;;;;;;;1.15;0.68;;;;;;;10.16;45.46;93644.00;5082195;28;20035;-77
2023/12/24 08:45:45;;;;;;;3.45;0.63;;;;;;;10.27;44.29;93663.84;5082261;28;20066;-78
2023/12/24 08:48:10;;;;;;;1.52;0.70;;;;;;;10.33;43.63;93651.97;5081958;28;20087;-78
2023/12/24 08:50:36;;;;;;;1.52;0.65;;;;;;;10.47;43.50;93651.78;5082051;28;20035;-78
2023/12/24 08:53:02;;;;;;;0.88;0.47;;;;;;;10.55;42.83;93634.22;5082330;28;20040;-78
2023/12/24 08:55:27;;;;;;;1.38;0.52;;;;;;;10.59;42.82;93645.81;5082170;28;20307;-78
2023/12/24 08:57:53;;;;;;;1.13;0.63;;;;;;;10.61;42.59;93655.06;5082023;28;20028;-78
2023/12/24 09:00:19;;;;;;;3.15;1.08;;;;;;;10.62;44.39;93656.63;5081951;28;20093;-78
2023/12/24 09:02:44;;;;;;;3.08;0.80;;;;;;;10.66;44.36;93653.31;5082091;28;20048;-78
2023/12/24 09:05:10;;;;;;;2.33;0.68;;;;;;;10.69;43.83;93650.03;5082033;28;20028;-78
2023/12/24 09:07:36;;;;;;;2.47;0.70;;;;;;;10.71;43.47;93639.84;5082134;28;20091;-78
2023/12/24 09:10:03;;;;;;;1.75;0.70;;;;;;;10.74;44.36;93642.63;5081994;28;20123;-79
2023/12/24 09:12:28;;;;;;;2.83;0.93;;;;;;;10.82;43.68;93646.38;5081750;28;20240;-79
2023/12/24 09:14:54;;;;;;;4.00;1.13;;;;;;;10.99;43.65;93650.84;5082166;28;20024;-78
2023/12/24 09:17:19;;;;;;;4.10;0.90;;;;;;;11.08;42.90;93651.59;5082116;28;20029;-79
2023/12/24 09:19:45;;;;;;;1.45;0.77;;;;;;;10.99;42.65;93648.19;5080763;28;20028;-79
2023/12/24 09:22:10;;;;;;;4.18;0.88;;;;;;;10.98;42.96;93641.28;5083530;28;20035;-79
2023/12/24 09:24:35;;;;;;;1.83;0.93;;;;;;;11.06;42.81;93645.81;5084241;28;20028;-79
2023/12/24 09:27:01;;;;;;;1.45;0.70;;;;;;;11.05;43.33;93644.22;5085352;28;20098;-79
2023/12/24 09:29:26;;;;;;;2.92;1.10;;;;;;;11.10;44.16;93638.72;5085574;28;20184;-79
2023/12/24 09:31:52;;;;;;;4.03;1.10;;;;;;;11.25;43.57;93658.72;5085507;28;20055;-79
2023/12/24 09:34:18;;;;;;;4.63;1.30;;;;;;;11.26;43.31;93654.19;5085384;28;20024;-79
2023/12/24 09:36:44;;;;;;;2.15;0.90;;;;;;;11.14;43.61;93642.31;5085135;28;20391;-79
2023/12/24 09:39:09;;;;;;;5.47;2.35;;;;;;;11.27;43.78;93656.53;5085204;28;20099;-79
2023/12/24 09:41:37;;;;;;;3.22;1.10;;;;;;;11.32;43.88;93656.34;5085028;28;20024;-79
2023/12/24 09:44:03;;;;;;;1.95;0.90;;;;;;;11.29;43.67;93643.66;5084179;28;20319;-78
2023/12/24 09:46:28;;;;;;;2.97;0.80;;;;;;;11.36;43.20;93622.59;5085170;28;20027;-79
2023/12/24 09:48:54;;;;;;;2.08;0.93;;;;;;;11.51;43.24;93628.47;5085083;28;20307;-79
2023/12/24 09:51:20;;;;;;;2.35;0.88;;;;;;;11.60;42.91;93623.84;5085128;28;20039;-79
2023/12/24 09:53:49;;;;;;;2.70;0.90;;;;;;;11.68;42.56;93628.31;5084904;28;20250;-79
2023/12/24 09:56:15;;;;;;;1.65;0.80;;;;;;;11.67;42.86;93623.34;5084805;28;20311;-79
2023/12/24 09:58:41;;;;;;;3.25;1.20;;;;;;;11.74;42.75;93611.00;5084871;28;20036;-79
2023/12/24 10:01:07;;;;;;;2.40;0.70;;;;;;;11.67;42.40;93610.75;5084653;28;20036;-79
2023/12/24 10:03:33;;;;;;;3.40;0.82;;;;;;;11.63;42.90;93605.28;5084632;28;20024;-79
2023/12/24 10:05:59;;;;;;;4.95;0.80;;;;;;;11.62;43.12;93600.25;5084763;28;20032;-79
2023/12/24 10:08:25;;;;;;;2.67;0.93;;;;;;;11.55;43.92;93576.00;5084913;28;20134;-79
2023/12/24 10:10:50;;;;;;;5.03;1.35;;;;;;;11.64;44.19;93569.50;5084757;28;20032;-79
2023/12/24 10:13:20;;;;;;;8.52;1.60;;;;;;;11.68;44.36;93553.56;5084380;28;20240;-79
2023/12/24 10:15:45;;;;;;;8.43;1.10;;;;;;;11.76;43.38;93544.72;5084686;28;20226;-79
2023/12/24 10:18:18;;;;;;;4.78;1.20;;;;;;;11.92;44.14;93546.81;5084638;28;20020;-79
2023/12/24 10:20:43;;;;;;;4.65;0.98;;;;;;;12.03;43.66;93537.31;5084683;28;20223;-79
2023/12/24 10:23:09;;;;;;;9.32;1.08;;;;;;;12.18;43.30;93547.34;5084374;28;20021;-79
2023/12/24 10:25:34;;;;;;;5.32;1.50;;;;;;;12.31;43.02;93528.66;5084354;28;20032;-80
2023/12/24 10:28:06;;;;;;;3.80;1.08;;;;;;;12.50;42.22;93520.91;5084242;28;20345;-80
2023/12/24 10:30:32;;;;;;;;;;;;;;;12.67;41.68;93516.47;5084756;28;20051;-80
2023/12/24 10:33:11;;;;;;;6.85;1.15;;;;;;;12.62;42.25;93525.50;5082830;28;19904;-80
2023/12/24 10:35:36;;;;;;;4.25;1.05;;;;;;;12.71;40.38;93533.41;5084148;28;20047;-80
2023/12/24 10:38:12;;;;;;;3.72;0.80;;;;;;;12.81;38.25;93514.22;5084055;28;20020;-79
2023/12/24 10:40:38;;;;;;;2.40;0.93;;;;;;;12.90;38.94;93525.56;5084155;28;20031;-79
2023/12/24 10:43:03;;;;;;;5.80;1.10;;;;;;;12.94;38.89;93488.25;5084074;28;20028;-79
2023/12/24 10:45:29;;;;;;;3.65;1.15;;;;;;;13.03;39.66;93513.00;5082696;28;20152;-79
2023/12/24 10:47:54;;;;;;;6.28;1.42;;;;;;;13.17;40.48;93516.09;5084063;28;20028;-80
2023/12/24 10:50:20;;;;;;;8.50;1.17;;;;;;;13.26;38.86;93510.59;5083904;28;20070;-80
2023/12/24 10:52:46;;;;;;;4.63;1.02;;;;;;;13.37;37.74;93503.72;5082744;28;20009;-80
2023/12/24 10:55:12;;;;;;;4.50;0.88;;;;;;;13.42;37.63;93494.66;5083814;28;20025;-79
2023/12/24 10:57:40;;;;;;;4.05;0.60;;;;;;;13.36;37.11;93491.44;5082620;28;20070;-78
2023/12/24 11:00:09;;;;;;;5.22;1.10;;;;;;;13.32;37.67;93513.88;5083549;28;20078;-79
2023/12/24 11:02:37;;;;;;;3.95;1.02;;;;;;;13.25;38.64;93525.13;5083560;28;20142;-79
2023/12/24 11:05:03;;;;;;;7.35;1.10;;;;;;;13.33;38.34;93484.09;5083573;28;20020;-79
2023/12/24 11:07:35;;;;;;;7.50;1.10;;;;;;;13.51;37.96;93505.22;5083566;28;20060;-78
2023/12/24 11:10:02;;;;;;;3.78;0.80;;;;;;;13.39;37.67;93493.44;5083573;28;20230;-79
2023/12/24 11:12:31;;;;;;;2.20;0.95;;;;;;;13.44;36.88;93490.50;5083429;28;20036;-79
2023/12/24 11:14:58;;;;;;;2.13;0.65;;;;;;;13.51;37.30;93486.47;5083377;28;20096;-79
2023/12/24 11:17:36;;;;;;;4.35;1.00;;;;;;;13.62;38.18;93520.47;5082428;28;20331;-79
2023/12/24 11:20:24;;;;;;;9.13;1.85;;;;;;;13.73;39.40;93525.34;5083212;28;20050;-79
2023/12/24 11:23:04;;;;;;;12.40;2.08;;;;;;;13.86;39.50;93526.88;5083305;28;20024;-79
2023/12/24 11:25:46;;;;;;;8.30;2.50;;;;;;;13.98;38.61;93534.06;5083272;28;20020;-79
2023/12/24 11:28:27;;;;;;;6.32;1.25;;;;;;;14.00;38.57;93515.72;5083126;28;20021;-79
2023/12/24 11:30:52;;;;;;;3.25;0.90;;;;;;;14.01;38.41;93519.97;5082140;28;20145;-79
2023/12/24 11:33:59;;;;;;;3.85;0.95;;;;;;;13.96;38.19;93520.22;5083081;28;20020;-79